Pagina principale
METAR-TAF:

METAR-TAF

Aeroporti :

Aviano, Italia

Base aerea di Aviano

latitudine: 46-02N, longitudine: 012-36E, altezza: 128 m

Osservazione

Il bollettino è stato emesso 4 ore e 21 minuti fa, alle 20:55 UTC
Vento 1 kt da sud/sud-ovest
Temperature 4°C
Umidità 100%
Pressione 1005 hPa
Visibilità: 4000 m
Nubi sparse ad un'altezza di 1500 ft
Nuvoloso ad un'altezza di 3000 ft
foschia

METAR: LIPA 162055Z 20001KT 4000 BR SCT015 BKN030 04/04 Q1005 RMK OVC VIS MIN 4000 WIND THR05 /////KT WIND THR23 /////KT A2969 GRN

Ora: 02:16 (01:16 UTC)

Previsione

Il bollettino è stato emesso 5 ore e 16 minuti fa, alle 20:00 UTC
Previsione valida dal 16 alle 21 UTC al 17 alle 06 UTC
Vento 3 kt da direzioni variabili
Visibilità: 3500 m
Nubi sparse ad un'altezza di 1500 ft
Nuvoloso ad un'altezza di 3000 ft
foschia
Temporaneamente
dal 16 alle 21 UTC al 17 alle 06 UTC
Visibilità: 1500 m
foschia

TAF: LIPA 162000Z 1621/1706 VRB03KT 3500 BR SCT015 BKN030 TEMPO 1621/1706 1500 BR

Osservazioni e previsioni meteorologiche di più di 4000 aeroporti (messaggi METAR e TAF).

Le stazioni disponibili sono rappresentate dai dischi gialli e rossi sulla carta.

Puntare il mouse per vedere il nome della stazione.

Clicca sopra per visualizzare le osservazioni e previsioni meteorologiche.

Per cambiare la mappa : fare clic sui pulsanti verdi con una croce nera per ingrandire, il pulsante verde con un trattino per diminuire, o sulla freccia verde per le mappe adiacenti.


METAR-TAF: